createdAt,value
2022-10-17T00:01:12.927Z,6.55
2022-10-17T00:03:41.803Z,6.72
2022-10-17T00:06:12.743Z,6.88
2022-10-17T00:08:42.315Z,6.53
2022-10-17T00:11:17.464Z,7.65
2022-10-17T00:13:48.100Z,7.75
2022-10-17T00:16:33.797Z,8.13
2022-10-17T00:19:03.488Z,6.75
2022-10-17T00:21:32.042Z,8.40
2022-10-17T00:24:01.150Z,8.35
2022-10-17T00:26:29.735Z,7.25
2022-10-17T00:28:58.592Z,6.93
2022-10-17T00:31:27.175Z,9.32
2022-10-17T00:33:55.513Z,7.93
2022-10-17T00:36:26.524Z,8.68
2022-10-17T00:38:57.978Z,9.10
2022-10-17T00:41:29.877Z,7.97
2022-10-17T00:44:24.565Z,7.93
2022-10-17T00:46:53.865Z,7.18
2022-10-17T00:49:24.526Z,8.25
2022-10-17T00:51:56.043Z,8.82
2022-10-17T00:54:30.643Z,8.02
2022-10-17T00:56:59.866Z,8.50
2022-10-17T00:59:29.956Z,6.60
2022-10-17T01:02:05.478Z,8.40
2022-10-17T01:04:37.563Z,8.07
2022-10-17T01:09:34.502Z,8.55
2022-10-17T01:12:11.752Z,8.02
2022-10-17T01:15:03.092Z,8.35
2022-10-17T01:18:06.428Z,9.40
2022-10-17T01:20:46.768Z,8.77
2022-10-17T01:23:54.283Z,9.10
2022-10-17T01:27:16.417Z,8.40
2022-10-17T01:30:03.051Z,7.75
2022-10-17T01:32:47.921Z,8.00
2022-10-17T01:35:30.390Z,8.80
2022-10-17T01:38:10.726Z,10.52
2022-10-17T01:40:50.948Z,9.13
2022-10-17T01:43:47.507Z,9.73
2022-10-17T01:46:37.257Z,11.02
2022-10-17T01:49:10.578Z,8.82
2022-10-17T01:51:45.190Z,9.23
2022-10-17T01:54:19.813Z,9.65
2022-10-17T01:56:52.365Z,10.80
2022-10-17T01:59:25.499Z,10.38
2022-10-17T02:01:57.304Z,8.40
2022-10-17T02:04:26.247Z,8.55
2022-10-17T02:06:54.780Z,9.98
2022-10-17T02:09:26.042Z,10.68
2022-10-17T02:12:31.772Z,11.50
2022-10-17T02:15:08.052Z,9.60
2022-10-17T02:18:09.859Z,9.15
2022-10-17T02:20:52.620Z,8.90
2022-10-17T02:23:33.711Z,9.55
2022-10-17T02:26:11.319Z,9.43
2022-10-17T02:29:09.837Z,10.40
2022-10-17T02:31:55.874Z,12.70
2022-10-17T02:34:36.028Z,11.80
2022-10-17T02:37:07.885Z,11.98
2022-10-17T02:39:39.296Z,9.05
2022-10-17T02:42:11.696Z,11.13
2022-10-17T02:44:43.969Z,11.90
2022-10-17T02:47:33.305Z,10.10
2022-10-17T02:50:02.169Z,9.35
2022-10-17T02:52:52.624Z,10.82
2022-10-17T02:55:35.873Z,12.20
2022-10-17T02:58:09.993Z,9.43
2022-10-17T03:00:39.285Z,11.57
2022-10-17T03:03:23.110Z,11.13
2022-10-17T03:05:52.323Z,10.77
2022-10-17T03:08:21.869Z,9.68
2022-10-17T03:10:50.574Z,8.38
2022-10-17T03:13:18.945Z,8.23
2022-10-17T03:15:47.385Z,10.82
2022-10-17T03:18:15.787Z,9.65
2022-10-17T03:20:44.241Z,8.88
2022-10-17T03:23:12.606Z,7.90
2022-10-17T03:25:41.835Z,9.15
2022-10-17T03:28:11.722Z,11.55
2022-10-17T03:30:40.047Z,10.18
2022-10-17T03:33:08.372Z,10.43
2022-10-17T03:35:40.235Z,10.63
2022-10-17T03:38:08.660Z,8.30
2022-10-17T03:40:37.040Z,10.85
2022-10-17T03:43:05.586Z,8.70
2022-10-17T03:45:33.945Z,8.18
2022-10-17T03:48:02.283Z,7.00
2022-10-17T03:50:30.603Z,11.05
2022-10-17T03:52:59.220Z,9.85
2022-10-17T03:55:27.564Z,10.07
2022-10-17T03:57:55.924Z,9.15
2022-10-17T04:00:24.252Z,9.00
2022-10-17T04:02:52.647Z,9.43
2022-10-17T04:05:21.022Z,8.88
2022-10-17T04:07:49.586Z,10.00
2022-10-17T04:10:18.198Z,9.43
2022-10-17T04:12:46.562Z,10.18
2022-10-17T04:15:15.283Z,8.35
2022-10-17T04:17:43.641Z,6.88
2022-10-17T04:20:13.024Z,12.13
2022-10-17T04:22:41.354Z,8.10
2022-10-17T04:25:09.802Z,7.82
2022-10-17T04:27:38.139Z,7.25
2022-10-17T04:30:07.163Z,9.45
2022-10-17T04:32:39.118Z,10.93
2022-10-17T04:35:09.187Z,8.80
2022-10-17T04:37:37.567Z,7.50
2022-10-17T04:40:06.601Z,8.18
2022-10-17T04:42:35.016Z,6.63
2022-10-17T04:45:04.384Z,6.63
2022-10-17T04:47:32.784Z,6.18
2022-10-17T04:50:01.149Z,7.38
2022-10-17T04:52:29.937Z,6.10
2022-10-17T04:54:58.504Z,7.80
2022-10-17T04:57:27.493Z,6.22
2022-10-17T04:59:55.912Z,8.68
2022-10-17T05:02:24.255Z,7.80
2022-10-17T05:04:52.610Z,8.98
2022-10-17T05:07:20.954Z,9.52
2022-10-17T05:09:49.275Z,7.72
2022-10-17T05:12:17.664Z,6.53
2022-10-17T05:14:46.056Z,5.47
2022-10-17T05:17:14.413Z,5.90
2022-10-17T05:19:43.889Z,6.85
2022-10-17T05:22:12.361Z,8.02
2022-10-17T05:24:40.722Z,7.95
2022-10-17T05:27:09.130Z,7.82
2022-10-17T05:29:37.555Z,9.68
2022-10-17T05:32:06.162Z,7.32
2022-10-17T05:34:34.871Z,7.75
2022-10-17T05:37:03.305Z,7.18
2022-10-17T05:39:31.829Z,8.02
2022-10-17T05:42:00.320Z,8.90
2022-10-17T05:44:28.727Z,7.07
2022-10-17T05:46:57.083Z,6.25
2022-10-17T05:49:33.420Z,6.95
2022-10-17T05:52:12.256Z,7.10
2022-10-17T05:54:40.694Z,8.02
2022-10-17T05:57:09.104Z,7.05
2022-10-17T05:59:37.532Z,7.78
2022-10-17T06:02:06.499Z,6.40
2022-10-17T06:04:35.076Z,8.52
2022-10-17T06:07:05.041Z,6.28
2022-10-17T06:09:33.376Z,7.05
2022-10-17T06:12:02.003Z,6.95
2022-10-17T06:14:30.436Z,8.63
2022-10-17T06:16:59.320Z,6.10
2022-10-17T06:19:27.652Z,7.78
2022-10-17T06:21:57.078Z,7.85
2022-10-17T06:24:25.448Z,6.78
2022-10-17T06:26:53.878Z,8.45
2022-10-17T06:29:22.448Z,7.75
2022-10-17T06:31:51.106Z,7.72
2022-10-17T06:34:19.516Z,8.30
2022-10-17T06:36:48.222Z,8.38
2022-10-17T06:39:16.712Z,6.70
2022-10-17T06:41:45.227Z,8.05
2022-10-17T06:44:13.781Z,7.85
2022-10-17T06:46:42.163Z,6.70
2022-10-17T06:49:10.876Z,5.20
2022-10-17T06:51:39.230Z,5.53
2022-10-17T06:54:07.604Z,6.50
2022-10-17T06:56:36.191Z,6.80
2022-10-17T06:59:04.584Z,6.65
2022-10-17T07:01:34.227Z,7.40
2022-10-17T07:04:02.694Z,5.82
2022-10-17T07:06:31.584Z,7.07
2022-10-17T07:09:02.592Z,6.78
2022-10-17T07:11:30.968Z,5.22
2022-10-17T07:13:59.432Z,5.72
2022-10-17T07:16:28.426Z,6.15
2022-10-17T07:18:56.953Z,6.13
2022-10-17T07:21:25.475Z,5.88
2022-10-17T07:23:53.929Z,6.65
2022-10-17T07:26:22.540Z,7.15
2022-10-17T07:28:53.580Z,6.68
2022-10-17T07:31:23.539Z,5.60
2022-10-17T07:33:52.192Z,5.40
2022-10-17T07:36:20.653Z,8.07
2022-10-17T07:38:49.083Z,5.40
2022-10-17T07:41:21.656Z,5.43
2022-10-17T07:43:50.473Z,5.38
2022-10-17T07:46:19.974Z,5.70
2022-10-17T07:48:48.294Z,5.22
2022-10-17T07:51:19.988Z,6.10
2022-10-17T07:53:48.986Z,5.75
2022-10-17T07:56:17.438Z,5.72
2022-10-17T07:58:45.811Z,5.60
2022-10-17T08:01:15.626Z,5.25
2022-10-17T08:03:48.822Z,5.78
2022-10-17T08:06:18.248Z,5.00
2022-10-17T08:08:46.837Z,4.72
2022-10-17T08:11:15.886Z,6.38
2022-10-17T08:13:44.506Z,7.22
2022-10-17T08:16:14.120Z,5.97
2022-10-17T08:18:43.778Z,4.97
2022-10-17T08:21:13.291Z,5.72
2022-10-17T08:23:41.806Z,6.68
2022-10-17T08:26:13.284Z,5.55
2022-10-17T08:28:41.898Z,5.55
2022-10-17T08:31:20.812Z,5.15
2022-10-17T08:33:50.437Z,7.15
2022-10-17T08:36:20.638Z,5.32
2022-10-17T08:38:52.643Z,5.00
2022-10-17T08:41:52.294Z,5.78
2022-10-17T08:44:58.299Z,7.28
2022-10-17T08:47:34.461Z,5.07
2022-10-17T08:50:06.829Z,9.27
2022-10-17T08:52:40.761Z,5.75
2022-10-17T08:55:21.488Z,5.90
2022-10-17T08:57:50.323Z,5.55
2022-10-17T09:00:20.895Z,6.32
2022-10-17T09:03:16.639Z,7.18
2022-10-17T09:05:56.393Z,5.82
2022-10-17T09:08:53.140Z,6.90
2022-10-17T09:11:48.437Z,6.50
2022-10-17T09:14:26.178Z,6.75
2022-10-17T09:17:03.459Z,8.85
2022-10-17T09:20:06.500Z,5.93
2022-10-17T09:22:42.765Z,7.47
2022-10-17T09:25:16.448Z,9.65
2022-10-17T09:27:49.719Z,8.27
2022-10-17T09:30:46.273Z,7.45
2022-10-17T09:33:34.681Z,7.40
2022-10-17T09:36:16.992Z,6.85
2022-10-17T09:38:52.415Z,10.00
2022-10-17T09:41:49.210Z,6.43
2022-10-17T09:44:25.204Z,7.03
2022-10-17T09:47:19.385Z,7.30
2022-10-17T09:49:49.441Z,6.88
2022-10-17T09:52:24.393Z,7.72
2022-10-17T09:54:57.545Z,6.95
2022-10-17T09:57:26.326Z,5.68
2022-10-17T10:00:07.082Z,6.60
2022-10-17T10:02:40.704Z,6.65
2022-10-17T10:05:18.897Z,5.90
2022-10-17T10:08:12.605Z,7.60
2022-10-17T10:10:44.376Z,7.07
2022-10-17T10:13:12.715Z,6.60
2022-10-17T10:15:46.185Z,6.97
2022-10-17T10:21:23.628Z,6.90
2022-10-17T10:24:10.299Z,6.82
2022-10-17T10:26:43.455Z,6.75
2022-10-17T10:29:40.474Z,7.18
2022-10-17T10:35:18.898Z,8.82
2022-10-17T10:37:54.053Z,7.23
2022-10-17T10:40:32.973Z,9.80
2022-10-17T10:43:05.324Z,8.60
2022-10-17T10:45:47.611Z,8.32
2022-10-17T10:48:21.670Z,10.02
2022-10-17T10:51:00.746Z,8.50
2022-10-17T10:54:06.780Z,10.32
2022-10-17T10:56:43.716Z,8.13
2022-10-17T10:59:49.020Z,9.80
2022-10-17T11:02:37.507Z,7.95
2022-10-17T11:05:14.103Z,7.80
2022-10-17T11:07:52.852Z,10.73
2022-10-17T11:10:44.559Z,8.88
2022-10-17T11:13:20.980Z,9.93
2022-10-17T11:15:57.647Z,8.50
2022-10-17T11:18:39.266Z,9.38
2022-10-17T11:21:16.885Z,8.90
2022-10-17T11:23:56.232Z,9.13
2022-10-17T11:26:31.809Z,11.85
2022-10-17T11:29:04.404Z,11.00
2022-10-17T11:31:38.263Z,10.18
2022-10-17T11:34:29.380Z,10.25
2022-10-17T11:37:08.244Z,9.02
2022-10-17T11:39:48.585Z,9.05
2022-10-17T11:42:32.647Z,11.05
2022-10-17T11:45:22.370Z,9.63
2022-10-17T11:47:55.339Z,10.68
2022-10-17T11:53:28.877Z,10.38
2022-10-17T11:56:01.021Z,8.60
2022-10-17T11:59:14.387Z,11.00
2022-10-17T12:01:54.568Z,9.27
2022-10-17T12:04:57.159Z,10.93
2022-10-17T12:07:34.848Z,9.43
2022-10-17T12:10:18.549Z,9.88
2022-10-17T12:12:48.143Z,12.23
2022-10-17T12:15:19.643Z,9.77
2022-10-17T12:18:02.246Z,10.05
2022-10-17T12:20:38.691Z,12.40
2022-10-17T12:23:13.216Z,11.68
2022-10-17T12:26:01.694Z,10.07
2022-10-17T12:28:47.122Z,8.60
2022-10-17T12:31:15.737Z,9.25
2022-10-17T12:34:00.509Z,13.25
2022-10-17T12:36:28.926Z,10.20
2022-10-17T12:39:03.384Z,8.20
2022-10-17T12:41:52.248Z,10.02
2022-10-17T12:44:35.993Z,8.82
2022-10-17T12:47:10.884Z,9.77
2022-10-17T12:49:46.502Z,7.63
2022-10-17T12:52:23.845Z,10.20
2022-10-17T12:55:11.510Z,8.35
2022-10-17T12:57:56.621Z,10.15
2022-10-17T13:00:33.741Z,9.07
2022-10-17T13:03:11.428Z,8.40
2022-10-17T13:05:43.459Z,10.48
2022-10-17T13:10:52.557Z,12.88
2022-10-17T13:13:45.114Z,12.13
2022-10-17T13:19:00.045Z,9.88
2022-10-17T13:21:29.415Z,9.68
2022-10-17T13:23:57.832Z,12.27
2022-10-17T13:26:28.192Z,10.27
2022-10-17T13:29:28.540Z,10.82
2022-10-17T13:32:01.442Z,9.13
2022-10-17T13:34:31.356Z,10.18
2022-10-17T13:37:05.325Z,8.48
2022-10-17T13:39:54.386Z,8.20
2022-10-17T13:42:28.383Z,9.48
2022-10-17T13:44:58.580Z,9.95
2022-10-17T13:47:36.934Z,8.60
2022-10-17T13:50:12.776Z,8.65
2022-10-17T13:53:05.061Z,9.00
2022-10-17T13:55:33.495Z,8.43
2022-10-17T13:58:50.609Z,10.32
2022-10-17T14:01:20.984Z,8.57
2022-10-17T14:03:54.722Z,10.75
2022-10-17T14:06:31.436Z,9.80
2022-10-17T14:09:16.369Z,9.50
2022-10-17T14:11:56.044Z,10.15
2022-10-17T14:14:26.059Z,11.38
2022-10-17T14:16:54.864Z,9.38
2022-10-17T14:19:27.195Z,9.70
2022-10-17T14:22:15.597Z,10.75
2022-10-17T14:24:44.671Z,12.82
2022-10-17T14:27:34.696Z,9.13
2022-10-17T14:30:07.080Z,11.70
2022-10-17T14:32:37.529Z,11.07
2022-10-17T14:35:24.423Z,10.57
2022-10-17T14:38:02.713Z,10.30
2022-10-17T14:40:33.438Z,14.90
2022-10-17T14:43:05.824Z,10.35
2022-10-17T14:45:37.285Z,13.38
2022-10-17T14:48:16.134Z,11.68
2022-10-17T14:51:17.232Z,13.27
2022-10-17T14:54:05.601Z,9.65
2022-10-17T14:56:39.369Z,12.57
2022-10-17T14:59:13.737Z,11.98
2022-10-17T15:01:44.120Z,10.38
2022-10-17T15:04:12.497Z,11.27
2022-10-17T15:06:41.342Z,8.18
2022-10-17T15:09:11.456Z,11.20
2022-10-17T15:11:40.008Z,10.38
2022-10-17T15:14:08.404Z,11.18
2022-10-17T15:16:39.361Z,12.23
2022-10-17T15:19:07.752Z,11.02
2022-10-17T15:21:44.641Z,10.95
2022-10-17T15:24:15.851Z,11.20
2022-10-17T15:26:45.464Z,9.15
2022-10-17T15:29:15.909Z,9.38
2022-10-17T15:31:44.363Z,10.98
2022-10-17T15:34:12.698Z,10.10
2022-10-17T15:36:42.658Z,12.77
2022-10-17T15:39:10.984Z,11.20
2022-10-17T15:41:39.491Z,12.32
2022-10-17T15:44:08.157Z,10.60
2022-10-17T15:46:40.485Z,9.75
2022-10-17T15:49:14.274Z,10.48
2022-10-17T15:51:42.981Z,9.05
2022-10-17T15:56:46.522Z,11.07
2022-10-17T15:59:18.500Z,8.80
2022-10-17T16:04:18.382Z,11.75
2022-10-17T16:06:46.734Z,10.60
2022-10-17T16:09:15.082Z,10.80
2022-10-17T16:11:44.625Z,12.18
2022-10-17T16:14:15.325Z,10.73
2022-10-17T16:16:43.861Z,12.55
2022-10-17T16:19:12.747Z,11.13
2022-10-17T16:21:41.666Z,10.75
2022-10-17T16:24:13.212Z,11.48
2022-10-17T16:26:41.811Z,13.57
2022-10-17T16:29:10.511Z,12.52
2022-10-17T16:31:42.881Z,13.45
2022-10-17T16:34:13.425Z,10.75
2022-10-17T16:36:42.650Z,9.82
2022-10-17T16:39:11.039Z,9.32
2022-10-17T16:41:39.929Z,12.38
2022-10-17T16:44:10.993Z,14.32
2022-10-17T16:46:39.344Z,10.77
2022-10-17T16:49:07.911Z,11.65
2022-10-17T16:51:37.664Z,13.55
2022-10-17T16:54:06.131Z,10.25
2022-10-17T16:56:34.567Z,10.82
2022-10-17T16:59:03.557Z,12.98
2022-10-17T17:01:32.157Z,11.23
2022-10-17T17:04:01.134Z,12.52
2022-10-17T17:06:30.445Z,12.30
2022-10-17T17:08:59.061Z,12.32
2022-10-17T17:11:28.891Z,10.68
2022-10-17T17:13:58.894Z,14.90
2022-10-17T17:16:28.736Z,16.08
2022-10-17T17:19:02.091Z,11.43
2022-10-17T17:21:31.657Z,11.77
2022-10-17T17:24:01.466Z,12.43
2022-10-17T17:26:35.796Z,12.27
2022-10-17T17:29:04.679Z,12.70
2022-10-17T17:31:35.127Z,11.80
2022-10-17T17:34:03.941Z,11.38
2022-10-17T17:36:37.019Z,14.02
2022-10-17T17:39:10.555Z,15.10
2022-10-17T17:41:39.908Z,12.00
2022-10-17T17:44:12.534Z,11.65
2022-10-17T17:46:45.109Z,12.98
2022-10-17T17:49:13.476Z,12.50
2022-10-17T17:51:46.168Z,14.90
2022-10-17T17:54:14.740Z,15.05
2022-10-17T17:56:43.161Z,12.68
2022-10-17T17:59:13.364Z,13.80
2022-10-17T18:01:42.963Z,15.20
2022-10-17T18:04:11.920Z,11.88
2022-10-17T18:06:40.285Z,18.05
2022-10-17T18:09:09.344Z,18.30
2022-10-17T18:11:38.273Z,15.27
2022-10-17T18:14:11.846Z,17.15
2022-10-17T18:16:40.458Z,15.63
2022-10-17T18:19:11.598Z,16.90
2022-10-17T18:21:39.956Z,17.80
2022-10-17T18:24:08.672Z,16.95
2022-10-17T18:26:37.071Z,17.52
2022-10-17T18:29:05.499Z,16.13
2022-10-17T18:31:35.779Z,17.10
2022-10-17T18:34:05.567Z,17.23
2022-10-17T18:36:35.098Z,15.65
2022-10-17T18:39:05.066Z,16.50
2022-10-17T18:41:34.041Z,14.15
2022-10-17T18:44:05.517Z,16.35
2022-10-17T18:46:40.131Z,13.05
2022-10-17T18:49:10.608Z,14.98
2022-10-17T18:51:39.655Z,17.92
2022-10-17T18:54:14.293Z,16.23
2022-10-17T18:56:43.455Z,15.68
2022-10-17T18:59:11.899Z,20.85
2022-10-17T19:01:40.319Z,16.10
2022-10-17T19:04:09.321Z,23.90
2022-10-17T19:06:39.111Z,15.35
2022-10-17T19:09:09.686Z,13.65
2022-10-17T19:11:38.752Z,15.38
2022-10-17T19:14:12.834Z,20.92
2022-10-17T19:16:46.348Z,12.40
2022-10-17T19:19:19.191Z,14.68
2022-10-17T19:21:47.911Z,15.15
2022-10-17T19:24:22.376Z,12.65
2022-10-17T19:26:53.502Z,12.02
2022-10-17T19:29:27.603Z,17.07
2022-10-17T19:34:24.435Z,33.38
2022-10-17T19:36:52.862Z,55.45
2022-10-17T19:39:23.466Z,13.85
2022-10-17T19:41:52.496Z,11.07
2022-10-17T19:44:22.059Z,15.90
2022-10-17T19:46:50.617Z,16.77
2022-10-17T19:49:19.017Z,11.95
2022-10-17T19:51:47.658Z,20.92
2022-10-17T19:54:18.821Z,16.95
2022-10-17T19:56:48.432Z,21.33
2022-10-17T19:59:17.748Z,12.60
2022-10-17T20:01:46.560Z,35.05
2022-10-17T20:04:17.079Z,28.73
2022-10-17T20:06:45.501Z,26.75
2022-10-17T20:09:16.988Z,16.00
2022-10-17T20:14:14.435Z,13.93
2022-10-17T20:16:44.696Z,26.48
2022-10-17T20:19:13.750Z,27.13
2022-10-17T20:21:43.460Z,35.50
2022-10-17T20:24:15.819Z,18.23
2022-10-17T20:26:44.814Z,17.48
2022-10-17T20:29:19.276Z,42.92
2022-10-17T20:31:48.493Z,63.33
2022-10-17T20:34:18.358Z,11.75
2022-10-17T20:36:47.420Z,74.78
2022-10-17T20:39:17.900Z,97.40
2022-10-17T20:41:46.746Z,54.53
2022-10-17T20:44:15.737Z,34.80
2022-10-17T20:46:57.656Z,21.95
2022-10-17T20:49:31.031Z,46.80
2022-10-17T20:52:00.653Z,14.05
2022-10-17T20:54:30.442Z,11.35
2022-10-17T20:57:02.434Z,25.35
2022-10-17T20:59:35.116Z,23.90
2022-10-17T21:02:05.186Z,43.63
2022-10-17T21:04:45.847Z,18.08
2022-10-17T21:07:15.740Z,11.38
2022-10-17T21:09:46.325Z,13.18
2022-10-17T21:12:21.736Z,11.52
2022-10-17T21:14:59.964Z,7.82
2022-10-17T21:17:28.386Z,7.55
2022-10-17T21:19:56.932Z,7.00
2022-10-17T21:22:25.596Z,6.75
2022-10-17T21:24:53.947Z,7.35
2022-10-17T21:27:22.575Z,7.45
2022-10-17T21:29:51.944Z,7.85
2022-10-17T21:32:32.140Z,7.13
2022-10-17T21:35:08.955Z,7.65
2022-10-17T21:37:37.638Z,7.85
2022-10-17T21:40:06.597Z,6.68
2022-10-17T21:42:34.961Z,8.52
2022-10-17T21:45:10.510Z,9.27
2022-10-17T21:47:54.857Z,6.38
2022-10-17T21:50:32.837Z,7.75
2022-10-17T21:53:01.204Z,7.82
2022-10-17T21:55:29.564Z,8.18
2022-10-17T21:57:58.067Z,9.20
2022-10-17T22:00:26.474Z,6.10
2022-10-17T22:02:54.852Z,7.18
2022-10-17T22:05:23.308Z,6.90
2022-10-17T22:07:51.636Z,6.28
2022-10-17T22:10:19.971Z,7.03
2022-10-17T22:12:48.383Z,7.68
2022-10-17T22:15:16.915Z,6.03
2022-10-17T22:17:45.363Z,7.15
2022-10-17T22:20:13.936Z,7.07
2022-10-17T22:22:42.290Z,7.47
2022-10-17T22:25:10.649Z,8.90
2022-10-17T22:27:39.130Z,8.23
2022-10-17T22:30:08.518Z,8.82
2022-10-17T22:32:36.951Z,5.93
2022-10-17T22:35:05.819Z,6.65
2022-10-17T22:37:34.166Z,9.05
2022-10-17T22:40:03.650Z,6.15
2022-10-17T22:42:34.391Z,6.68
2022-10-17T22:45:03.253Z,8.68
2022-10-17T22:47:32.223Z,7.03
2022-10-17T22:50:00.884Z,5.93
2022-10-17T22:52:29.752Z,5.93
2022-10-17T22:54:58.543Z,8.00
2022-10-17T22:57:27.078Z,6.57
2022-10-17T22:59:55.422Z,8.00
2022-10-17T23:02:23.832Z,9.02
2022-10-17T23:04:52.171Z,9.25
2022-10-17T23:07:21.562Z,9.70
2022-10-17T23:09:50.395Z,6.80
2022-10-17T23:12:19.412Z,9.32
2022-10-17T23:14:47.892Z,6.25
2022-10-17T23:17:16.536Z,7.45
2022-10-17T23:19:45.018Z,8.70
2022-10-17T23:22:13.456Z,8.27
2022-10-17T23:24:41.805Z,9.38
2022-10-17T23:27:10.373Z,8.70
2022-10-17T23:29:38.676Z,6.35
2022-10-17T23:32:07.124Z,8.73
2022-10-17T23:34:35.481Z,7.72
2022-10-17T23:37:03.880Z,9.00
2022-10-17T23:39:32.268Z,6.45
2022-10-17T23:42:00.740Z,7.63
2022-10-17T23:44:29.514Z,7.65
2022-10-17T23:46:57.869Z,7.45
2022-10-17T23:49:28.326Z,8.35
2022-10-17T23:51:56.747Z,8.77
2022-10-17T23:54:25.217Z,8.13
2022-10-17T23:56:53.633Z,6.75
2022-10-17T23:59:22.012Z,9.35
